createdAt,value
2018-09-17T00:01:51.655Z,6.97
2018-09-17T00:04:20.729Z,6.63
2018-09-17T00:06:49.867Z,6.70
2018-09-17T00:09:18.973Z,6.63
2018-09-17T00:11:47.944Z,6.53
2018-09-17T00:14:16.944Z,7.00
2018-09-17T00:16:45.953Z,6.50
2018-09-17T00:19:14.945Z,6.10
2018-09-17T00:21:43.923Z,8.10
2018-09-17T00:24:12.925Z,7.43
2018-09-17T00:26:42.025Z,7.30
2018-09-17T00:29:11.121Z,6.57
2018-09-17T00:31:40.097Z,6.80
2018-09-17T00:34:09.539Z,7.13
2018-09-17T00:36:39.626Z,7.30
2018-09-17T00:39:09.862Z,6.93
2018-09-17T00:41:38.827Z,6.93
2018-09-17T00:44:07.833Z,7.37
2018-09-17T00:46:36.946Z,6.20
2018-09-17T00:49:06.010Z,6.50
2018-09-17T00:51:34.991Z,6.67
2018-09-17T00:54:04.086Z,6.50
2018-09-17T00:56:33.230Z,7.20
2018-09-17T00:59:02.250Z,7.47
2018-09-17T01:01:31.269Z,7.90
2018-09-17T01:04:00.255Z,7.63
2018-09-17T01:06:29.250Z,7.60
2018-09-17T01:08:58.225Z,8.57
2018-09-17T01:11:27.253Z,7.80
2018-09-17T01:13:56.254Z,8.33
2018-09-17T01:16:25.235Z,8.80
2018-09-17T01:18:54.314Z,8.47
2018-09-17T01:21:23.329Z,8.13
2018-09-17T01:23:52.289Z,8.43
2018-09-17T01:26:21.258Z,8.80
2018-09-17T01:28:50.238Z,8.10
2018-09-17T01:31:19.263Z,8.07
2018-09-17T01:33:48.253Z,7.97
2018-09-17T01:36:17.218Z,8.37
2018-09-17T01:38:46.219Z,8.87
2018-09-17T01:41:15.275Z,7.80
2018-09-17T01:43:44.357Z,8.60
2018-09-17T01:46:13.439Z,8.60
2018-09-17T01:48:42.524Z,8.67
2018-09-17T01:51:11.562Z,8.27
2018-09-17T01:53:40.547Z,9.30
2018-09-17T01:56:09.628Z,10.20
2018-09-17T01:58:38.626Z,10.00
2018-09-17T02:01:07.673Z,9.20
2018-09-17T02:03:36.642Z,9.53
2018-09-17T02:06:05.795Z,10.00
2018-09-17T02:08:34.865Z,10.33
2018-09-17T02:11:03.872Z,10.40
2018-09-17T02:13:32.942Z,10.60
2018-09-17T02:16:01.955Z,10.27
2018-09-17T02:18:30.965Z,9.53
2018-09-17T02:20:59.932Z,9.43
2018-09-17T02:23:28.981Z,10.70
2018-09-17T02:25:58.073Z,10.77
2018-09-17T02:28:27.463Z,10.00
2018-09-17T02:30:56.469Z,10.23
2018-09-17T02:33:25.837Z,9.60
2018-09-17T02:35:54.824Z,9.77
2018-09-17T02:38:23.869Z,9.70
2018-09-17T02:40:52.866Z,9.40
2018-09-17T02:43:21.831Z,9.43
2018-09-17T02:45:50.818Z,9.40
2018-09-17T02:48:19.914Z,10.20
2018-09-17T02:50:48.930Z,10.17
2018-09-17T02:53:18.037Z,10.83
2018-09-17T02:55:47.013Z,9.10
2018-09-17T02:58:16.054Z,11.43
2018-09-17T03:00:45.013Z,10.10
2018-09-17T03:03:13.972Z,10.70
2018-09-17T03:05:42.953Z,10.20
2018-09-17T03:08:11.970Z,10.90
2018-09-17T03:10:41.010Z,11.57
2018-09-17T03:13:09.994Z,11.23
2018-09-17T03:15:48.060Z,10.50
2018-09-17T03:18:22.151Z,12.87
2018-09-17T03:20:51.150Z,10.80
2018-09-17T03:23:20.267Z,10.90
2018-09-17T03:25:49.567Z,10.27
2018-09-17T03:28:18.580Z,10.50
2018-09-17T03:30:47.570Z,11.70
2018-09-17T03:33:16.593Z,11.43
2018-09-17T03:35:45.566Z,12.27
2018-09-17T03:38:42.889Z,12.07
2018-09-17T03:41:12.569Z,11.73
2018-09-17T03:43:42.832Z,11.30
2018-09-17T03:46:11.938Z,12.50
2018-09-17T03:48:41.450Z,11.00
2018-09-17T03:51:11.079Z,12.83
2018-09-17T03:53:40.441Z,13.00
2018-09-17T03:56:09.427Z,11.90
2018-09-17T03:58:38.444Z,12.93
2018-09-17T04:01:07.602Z,13.23
2018-09-17T04:03:36.599Z,13.90
2018-09-17T04:06:05.615Z,13.73
2018-09-17T04:08:34.570Z,13.90
2018-09-17T04:11:03.598Z,12.97
2018-09-17T04:13:32.595Z,13.30
2018-09-17T04:16:01.630Z,14.83
2018-09-17T04:18:30.691Z,16.40
2018-09-17T04:20:59.665Z,15.13
2018-09-17T04:23:32.512Z,16.07
2018-09-17T04:26:01.838Z,15.53
2018-09-17T04:28:30.893Z,15.90
2018-09-17T04:30:59.970Z,15.90
2018-09-17T04:33:31.596Z,12.77
2018-09-17T04:36:00.742Z,14.13
2018-09-17T04:38:29.728Z,14.83
2018-09-17T04:40:58.923Z,15.17
2018-09-17T04:43:27.916Z,15.40
2018-09-17T04:45:56.960Z,13.93
2018-09-17T04:48:25.945Z,15.00
2018-09-17T04:50:54.938Z,15.07
2018-09-17T04:53:23.999Z,14.20
2018-09-17T04:55:53.082Z,14.60
2018-09-17T04:58:22.289Z,15.20
2018-09-17T05:00:51.440Z,14.00
2018-09-17T05:03:20.535Z,15.73
2018-09-17T05:05:49.678Z,15.13
2018-09-17T05:08:18.845Z,14.37
2018-09-17T05:10:47.877Z,14.03
2018-09-17T05:13:16.887Z,14.50
2018-09-17T05:15:45.870Z,14.70
2018-09-17T05:18:14.949Z,15.00
2018-09-17T05:20:44.035Z,15.13
2018-09-17T05:23:12.953Z,14.30
2018-09-17T05:25:41.922Z,15.60
2018-09-17T05:28:10.929Z,14.27
2018-09-17T05:30:40.028Z,14.40
2018-09-17T05:33:09.013Z,14.27
2018-09-17T05:35:38.138Z,15.03
2018-09-17T05:38:07.156Z,15.77
2018-09-17T05:40:36.149Z,15.83
2018-09-17T05:43:05.197Z,16.03
2018-09-17T05:45:34.235Z,17.40
2018-09-17T05:48:03.393Z,17.03
2018-09-17T05:50:32.361Z,16.23
2018-09-17T05:53:01.377Z,18.17
2018-09-17T05:55:30.353Z,17.50
2018-09-17T05:57:59.352Z,15.93
2018-09-17T06:00:28.341Z,16.63
2018-09-17T06:02:58.002Z,16.70
2018-09-17T06:05:27.241Z,17.67
2018-09-17T06:07:56.299Z,18.87
2018-09-17T06:10:25.288Z,16.90
2018-09-17T06:12:54.279Z,16.30
2018-09-17T06:15:23.610Z,16.83
2018-09-17T06:17:52.626Z,16.50
2018-09-17T06:20:21.618Z,16.30
2018-09-17T06:22:50.862Z,17.10
2018-09-17T06:25:20.026Z,16.53
2018-09-17T06:27:49.186Z,16.67
2018-09-17T06:30:18.328Z,17.00
2018-09-17T06:32:47.516Z,18.03
2018-09-17T06:35:16.641Z,17.80
2018-09-17T06:37:45.847Z,17.50
2018-09-17T06:40:15.064Z,17.90
2018-09-17T06:42:44.053Z,18.03
2018-09-17T06:45:13.142Z,17.70
2018-09-17T06:47:42.219Z,18.53
2018-09-17T06:50:11.294Z,18.80
2018-09-17T06:52:40.459Z,18.30
2018-09-17T06:55:09.496Z,18.80
2018-09-17T06:57:38.626Z,19.50
2018-09-17T07:00:08.865Z,19.50
2018-09-17T07:02:37.930Z,19.50
2018-09-17T07:05:07.041Z,18.67
2018-09-17T07:07:36.070Z,18.67
2018-09-17T07:10:05.439Z,19.40
2018-09-17T07:12:34.475Z,18.60
2018-09-17T07:15:03.602Z,17.53
2018-09-17T07:17:32.728Z,17.87
2018-09-17T07:20:01.798Z,17.70
2018-09-17T07:22:30.854Z,17.60
2018-09-17T07:24:59.852Z,16.87
2018-09-17T07:27:28.891Z,17.13
2018-09-17T07:29:58.011Z,17.73
2018-09-17T07:32:27.062Z,16.37
2018-09-17T07:34:56.174Z,17.00
2018-09-17T07:37:25.256Z,17.83
2018-09-17T07:39:54.233Z,17.03
2018-09-17T07:42:23.253Z,16.90
2018-09-17T07:44:52.241Z,16.50
2018-09-17T07:47:21.242Z,16.50
2018-09-17T07:49:50.329Z,14.80
2018-09-17T07:52:19.581Z,15.20
2018-09-17T07:54:48.602Z,17.00
2018-09-17T07:57:17.582Z,16.60
2018-09-17T07:59:46.601Z,17.07
2018-09-17T08:02:15.592Z,16.90
2018-09-17T08:04:44.679Z,16.10
2018-09-17T08:07:13.715Z,16.43
2018-09-17T08:09:42.749Z,16.10
2018-09-17T08:12:11.810Z,16.70
2018-09-17T08:14:40.859Z,15.83
2018-09-17T08:17:09.885Z,15.93
2018-09-17T08:19:38.971Z,16.47
2018-09-17T08:22:07.864Z,15.83
2018-09-17T08:24:36.984Z,16.20
2018-09-17T08:27:06.147Z,15.43
2018-09-17T08:29:35.266Z,15.10
2018-09-17T08:32:04.335Z,15.70
2018-09-17T08:34:33.535Z,14.97
2018-09-17T08:37:02.609Z,15.87
2018-09-17T08:39:31.590Z,14.70
2018-09-17T08:42:00.636Z,14.17
2018-09-17T08:44:29.626Z,14.33
2018-09-17T08:46:58.620Z,14.77
2018-09-17T08:49:27.669Z,14.10
2018-09-17T08:51:56.676Z,14.53
2018-09-17T08:54:25.770Z,13.70
2018-09-17T08:56:59.535Z,13.43
2018-09-17T08:59:33.973Z,15.80
2018-09-17T09:02:15.808Z,14.70
2018-09-17T09:04:50.350Z,13.73
2018-09-17T09:07:24.956Z,13.40
2018-09-17T09:09:58.169Z,12.07
2018-09-17T09:12:31.481Z,11.30
2018-09-17T09:15:05.965Z,10.10
2018-09-17T09:17:34.954Z,9.70
2018-09-17T09:20:04.002Z,10.50
2018-09-17T09:22:33.037Z,9.10
2018-09-17T09:25:02.041Z,10.43
2018-09-17T09:27:31.120Z,10.30
2018-09-17T09:30:00.130Z,8.13
2018-09-17T09:32:29.095Z,8.67
2018-09-17T09:34:58.102Z,9.03
2018-09-17T09:37:27.269Z,8.80
2018-09-17T09:39:57.308Z,8.20
2018-09-17T09:42:26.300Z,7.90
2018-09-17T09:44:55.581Z,7.33
2018-09-17T09:47:24.599Z,7.90
2018-09-17T09:49:53.590Z,8.10
2018-09-17T09:52:22.654Z,7.60
2018-09-17T09:54:51.677Z,7.87
2018-09-17T09:57:20.729Z,8.07
2018-09-17T09:59:49.807Z,9.23
2018-09-17T10:02:24.261Z,7.97
2018-09-17T10:04:53.351Z,6.57
2018-09-17T10:07:22.387Z,6.30
2018-09-17T10:09:56.722Z,6.10
2018-09-17T10:12:30.996Z,7.20
2018-09-17T10:15:05.479Z,6.00
2018-09-17T10:17:39.862Z,6.20
2018-09-17T10:20:08.899Z,4.97
2018-09-17T10:22:37.985Z,5.10
2018-09-17T10:25:07.182Z,5.97
2018-09-17T10:27:36.289Z,5.40
2018-09-17T10:30:05.825Z,4.97
2018-09-17T10:32:34.834Z,5.80
2018-09-17T10:35:04.957Z,4.40
2018-09-17T10:37:33.981Z,5.47
2018-09-17T10:40:02.998Z,4.30
2018-09-17T10:42:31.986Z,3.87
2018-09-17T10:45:01.042Z,3.63
2018-09-17T10:47:30.038Z,3.40
2018-09-17T10:49:59.036Z,4.70
2018-09-17T10:52:28.034Z,3.90
2018-09-17T10:54:57.123Z,3.90
2018-09-17T10:57:26.105Z,4.63
2018-09-17T10:59:55.434Z,4.50
2018-09-17T11:02:24.435Z,3.57
2018-09-17T11:04:53.549Z,3.37
2018-09-17T11:07:22.622Z,3.87
2018-09-17T11:09:51.582Z,3.40
2018-09-17T11:12:20.585Z,3.63
2018-09-17T11:14:49.630Z,3.77
2018-09-17T11:17:18.804Z,3.00
2018-09-17T11:19:47.799Z,3.40
2018-09-17T11:22:16.804Z,3.60
2018-09-17T11:24:45.869Z,3.20
2018-09-17T11:27:14.832Z,2.90
2018-09-17T11:29:43.893Z,3.03
2018-09-17T11:32:13.004Z,2.90
2018-09-17T11:34:42.068Z,2.93
2018-09-17T11:37:11.019Z,3.20
2018-09-17T11:39:40.082Z,2.57
2018-09-17T11:42:09.160Z,3.00
2018-09-17T11:44:38.380Z,3.07
2018-09-17T11:47:07.412Z,3.47
2018-09-17T11:49:36.393Z,3.00
2018-09-17T11:52:05.366Z,2.60
2018-09-17T11:54:34.333Z,2.90
2018-09-17T11:57:03.361Z,2.47
2018-09-17T11:59:32.450Z,2.90
2018-09-17T12:02:04.968Z,3.03
2018-09-17T12:04:39.415Z,2.40
2018-09-17T12:07:13.932Z,2.50
2018-09-17T12:09:43.024Z,2.87
2018-09-17T12:12:13.020Z,2.63
2018-09-17T12:14:42.057Z,3.10
2018-09-17T12:17:11.081Z,2.70
2018-09-17T12:19:40.126Z,3.10
2018-09-17T12:22:09.115Z,2.50
2018-09-17T12:24:38.094Z,2.53
2018-09-17T12:27:07.162Z,2.97
2018-09-17T12:29:36.208Z,2.70
2018-09-17T12:32:05.317Z,3.13
2018-09-17T12:34:34.560Z,2.93
2018-09-17T12:37:03.593Z,2.70
2018-09-17T12:39:32.671Z,2.70
2018-09-17T12:42:01.665Z,3.57
2018-09-17T12:44:30.681Z,3.50
2018-09-17T12:46:59.746Z,3.07
2018-09-17T12:49:29.947Z,3.30
2018-09-17T12:51:58.945Z,3.00
2018-09-17T12:54:27.965Z,3.13
2018-09-17T12:56:57.014Z,2.97
2018-09-17T12:59:26.077Z,3.40
2018-09-17T13:01:55.179Z,3.07
2018-09-17T13:04:24.251Z,3.00
2018-09-17T13:06:53.339Z,3.17
2018-09-17T13:09:22.356Z,3.37
2018-09-17T13:11:51.352Z,3.00
2018-09-17T13:14:20.286Z,3.00
2018-09-17T13:16:49.250Z,3.20
2018-09-17T13:19:18.332Z,3.60
2018-09-17T13:21:47.265Z,3.30
2018-09-17T13:24:16.330Z,4.23
2018-09-17T13:26:45.421Z,3.03
2018-09-17T13:29:14.449Z,3.50
2018-09-17T13:31:43.518Z,3.50
2018-09-17T13:34:12.486Z,3.40
2018-09-17T13:36:41.554Z,3.37
2018-09-17T13:39:10.479Z,3.63
2018-09-17T13:41:39.535Z,3.70
2018-09-17T13:44:08.580Z,3.40
2018-09-17T13:46:37.626Z,3.80
2018-09-17T13:49:06.634Z,3.57
2018-09-17T13:51:35.568Z,3.70
2018-09-17T13:54:04.644Z,3.60
2018-09-17T13:56:33.635Z,3.30
2018-09-17T13:59:02.628Z,3.30
2018-09-17T14:01:31.593Z,3.20
2018-09-17T14:04:00.887Z,3.47
2018-09-17T14:06:29.891Z,3.50
2018-09-17T14:08:59.348Z,3.20
2018-09-17T14:11:28.281Z,4.10
2018-09-17T14:13:57.433Z,3.30
2018-09-17T14:16:31.753Z,3.77
2018-09-17T14:19:00.887Z,3.30
2018-09-17T14:21:30.292Z,4.40
2018-09-17T14:23:59.887Z,3.43
2018-09-17T14:26:29.350Z,3.40
2018-09-17T14:28:58.860Z,3.17
2018-09-17T14:31:33.201Z,3.00
2018-09-17T14:34:02.445Z,3.03
2018-09-17T14:36:31.767Z,3.57
2018-09-17T14:39:00.771Z,3.13
2018-09-17T14:41:29.853Z,3.13
2018-09-17T14:43:58.846Z,3.80
2018-09-17T14:46:27.861Z,3.40
2018-09-17T14:48:56.801Z,3.30
2018-09-17T14:51:25.932Z,3.33
2018-09-17T14:53:55.015Z,3.60
2018-09-17T14:56:24.018Z,3.70
2018-09-17T14:58:53.064Z,3.13
2018-09-17T15:01:22.126Z,3.97
2018-09-17T15:03:51.012Z,3.77
2018-09-17T15:06:20.001Z,3.57
2018-09-17T15:08:49.122Z,3.80
2018-09-17T15:11:18.097Z,3.30
2018-09-17T15:13:47.213Z,2.90
2018-09-17T15:16:16.194Z,3.20
2018-09-17T15:18:45.193Z,3.90
2018-09-17T15:21:14.244Z,2.80
2018-09-17T15:23:43.370Z,3.03
2018-09-17T15:26:12.392Z,3.17
2018-09-17T15:28:41.326Z,3.17
2018-09-17T15:31:10.301Z,3.17
2018-09-17T15:33:39.249Z,3.30
2018-09-17T15:36:08.319Z,3.40
2018-09-17T15:38:37.394Z,3.17
2018-09-17T15:41:06.434Z,3.10
2018-09-17T15:43:35.722Z,3.40
2018-09-17T15:46:04.834Z,3.80
2018-09-17T15:48:33.747Z,4.30
2018-09-17T15:51:02.869Z,3.37
2018-09-17T15:53:31.810Z,3.13
2018-09-17T15:56:01.031Z,3.23
2018-09-17T15:58:29.983Z,2.93
2018-09-17T16:00:58.977Z,3.20
2018-09-17T16:03:27.926Z,2.93
2018-09-17T16:05:56.961Z,3.10
2018-09-17T16:08:26.068Z,2.93
2018-09-17T16:10:55.184Z,3.10
2018-09-17T16:13:24.180Z,2.60
2018-09-17T16:15:53.202Z,3.20
2018-09-17T16:18:22.246Z,2.80
2018-09-17T16:20:51.251Z,2.87
2018-09-17T16:23:20.361Z,2.90
2018-09-17T16:25:49.447Z,2.70
2018-09-17T16:28:18.544Z,3.27
2018-09-17T16:30:47.573Z,3.33
2018-09-17T16:33:16.647Z,2.80
2018-09-17T16:35:47.649Z,3.27
2018-09-17T16:38:16.661Z,3.30
2018-09-17T16:40:45.994Z,3.23
2018-09-17T16:43:14.957Z,2.57
2018-09-17T16:45:43.910Z,3.03
2018-09-17T16:48:12.976Z,4.13
2018-09-17T16:50:42.026Z,3.23
2018-09-17T16:53:11.089Z,3.57
2018-09-17T16:55:40.011Z,2.90
2018-09-17T16:58:09.110Z,3.17
2018-09-17T17:00:38.056Z,4.20
2018-09-17T17:03:07.101Z,3.30
2018-09-17T17:05:36.173Z,3.80
2018-09-17T17:08:05.261Z,3.67
2018-09-17T17:10:34.274Z,4.70
2018-09-17T17:13:03.309Z,3.50
2018-09-17T17:15:32.337Z,4.33
2018-09-17T17:18:01.483Z,3.73
2018-09-17T17:20:30.448Z,3.03
2018-09-17T17:22:59.462Z,3.40
2018-09-17T17:25:28.441Z,4.30
2018-09-17T17:27:57.565Z,4.70
2018-09-17T17:30:26.601Z,4.10
2018-09-17T17:32:55.626Z,4.07
2018-09-17T17:35:24.607Z,3.80
2018-09-17T17:37:53.665Z,5.53
2018-09-17T17:40:22.792Z,5.30
2018-09-17T17:42:51.679Z,5.40
2018-09-17T17:45:20.658Z,4.77
2018-09-17T17:47:49.768Z,4.97
2018-09-17T17:50:19.801Z,5.60
2018-09-17T17:52:48.940Z,5.50
2018-09-17T17:55:18.020Z,4.60
2018-09-17T17:57:47.303Z,4.87
2018-09-17T18:00:16.526Z,4.83
2018-09-17T18:02:45.627Z,5.03
2018-09-17T18:05:14.910Z,4.83
2018-09-17T18:07:44.024Z,5.20
2018-09-17T18:10:13.075Z,5.40
2018-09-17T18:12:42.238Z,5.40
2018-09-17T18:15:11.348Z,4.87
2018-09-17T18:17:40.261Z,4.20
2018-09-17T18:20:09.333Z,4.60
2018-09-17T18:22:38.325Z,4.93
2018-09-17T18:25:07.354Z,4.80
2018-09-17T18:27:36.349Z,4.60
2018-09-17T18:30:05.694Z,5.83
2018-09-17T18:32:35.556Z,4.60
2018-09-17T18:35:05.747Z,4.33
2018-09-17T18:37:34.827Z,4.63
2018-09-17T18:40:03.922Z,5.13
2018-09-17T18:42:33.046Z,6.23
2018-09-17T18:45:02.074Z,4.97
2018-09-17T18:47:30.938Z,6.27
2018-09-17T18:49:59.986Z,4.87
2018-09-17T18:52:29.054Z,5.67
2018-09-17T18:54:58.066Z,5.13
2018-09-17T18:57:27.101Z,4.70
2018-09-17T18:59:56.042Z,4.70
2018-09-17T19:02:24.958Z,5.60
2018-09-17T19:04:54.054Z,5.70
2018-09-17T19:07:23.415Z,5.17
2018-09-17T19:09:52.426Z,6.07
2018-09-17T19:12:21.739Z,5.47
2018-09-17T19:14:55.959Z,4.70
2018-09-17T19:17:30.110Z,5.20
2018-09-17T19:20:00.637Z,6.03
2018-09-17T19:22:34.875Z,6.70
2018-09-17T19:25:03.925Z,5.90
2018-09-17T19:27:38.413Z,6.20
2018-09-17T19:30:07.638Z,5.67
2018-09-17T19:32:36.626Z,6.10
2018-09-17T19:35:05.731Z,5.60
2018-09-17T19:37:40.034Z,6.00
2018-09-17T19:40:18.624Z,5.40
2018-09-17T19:42:48.365Z,6.20
2018-09-17T19:45:22.672Z,7.50
2018-09-17T19:47:52.318Z,6.07
2018-09-17T19:50:26.901Z,6.23
2018-09-17T19:52:55.993Z,5.80
2018-09-17T19:55:25.060Z,7.10
2018-09-17T19:57:59.404Z,6.13
2018-09-17T20:00:28.642Z,6.80
2018-09-17T20:02:57.557Z,6.43
2018-09-17T20:05:31.853Z,6.00
2018-09-17T20:08:00.888Z,7.00
2018-09-17T20:10:29.897Z,6.50
2018-09-17T20:12:58.853Z,6.63
2018-09-17T20:15:27.938Z,6.80
2018-09-17T20:17:57.031Z,7.83
2018-09-17T20:20:26.151Z,7.00
2018-09-17T20:22:55.169Z,7.83
2018-09-17T20:25:24.178Z,7.30
2018-09-17T20:27:53.210Z,6.87
2018-09-17T20:30:22.153Z,7.00
2018-09-17T20:32:51.337Z,6.77
2018-09-17T20:35:20.607Z,7.43
2018-09-17T20:37:49.592Z,7.00
2018-09-17T20:40:18.563Z,6.50
2018-09-17T20:42:47.526Z,6.40
2018-09-17T20:45:16.552Z,6.50
2018-09-17T20:47:45.502Z,6.60
2018-09-17T20:50:14.506Z,6.70
2018-09-17T20:52:43.742Z,6.70
2018-09-17T20:55:12.783Z,6.23
2018-09-17T20:57:41.734Z,7.27
2018-09-17T21:00:10.800Z,7.00
2018-09-17T21:02:39.805Z,7.63
2018-09-17T21:05:10.920Z,6.80
2018-09-17T21:07:40.980Z,8.00
2018-09-17T21:10:10.991Z,7.47
2018-09-17T21:12:40.125Z,7.60
2018-09-17T21:15:09.135Z,6.70
2018-09-17T21:17:38.193Z,7.27
2018-09-17T21:20:07.281Z,7.63
2018-09-17T21:22:36.609Z,7.30
2018-09-17T21:25:05.665Z,7.13
2018-09-17T21:27:34.617Z,6.80
2018-09-17T21:30:03.724Z,7.07
2018-09-17T21:32:32.662Z,6.43
2018-09-17T21:35:01.763Z,6.60
2018-09-17T21:37:30.791Z,7.67
2018-09-17T21:39:59.810Z,7.87
2018-09-17T21:42:29.826Z,7.90
2018-09-17T21:44:58.859Z,8.30
2018-09-17T21:47:27.858Z,7.30
2018-09-17T21:49:56.911Z,6.80
2018-09-17T21:52:25.935Z,7.83
2018-09-17T21:54:54.901Z,8.37
2018-09-17T21:57:23.863Z,7.10
2018-09-17T21:59:53.065Z,8.43
2018-09-17T22:02:22.073Z,7.30
2018-09-17T22:04:50.991Z,6.93
2018-09-17T22:07:21.142Z,7.37
2018-09-17T22:09:50.175Z,7.57
2018-09-17T22:12:19.154Z,7.27
2018-09-17T22:14:48.142Z,7.73
2018-09-17T22:17:17.188Z,7.23
2018-09-17T22:19:46.244Z,7.23
2018-09-17T22:22:15.272Z,6.93
2018-09-17T22:24:44.331Z,7.00
2018-09-17T22:27:13.254Z,7.87
2018-09-17T22:29:42.272Z,7.73
2018-09-17T22:32:11.570Z,8.20
2018-09-17T22:34:40.650Z,7.03
2018-09-17T22:37:09.658Z,8.53
2018-09-17T22:39:38.652Z,9.47
2018-09-17T22:42:07.757Z,7.50
2018-09-17T22:44:36.742Z,6.80
2018-09-17T22:47:05.901Z,8.00
2018-09-17T22:49:34.927Z,7.87
2018-09-17T22:52:03.994Z,8.53
2018-09-17T22:54:32.961Z,7.90
2018-09-17T22:57:01.927Z,7.47
2018-09-17T22:59:30.869Z,8.00
2018-09-17T23:01:59.865Z,7.80
2018-09-17T23:04:28.834Z,8.00
2018-09-17T23:06:57.795Z,8.00
2018-09-17T23:09:26.769Z,8.07
2018-09-17T23:11:55.733Z,8.30
2018-09-17T23:14:24.723Z,8.23
2018-09-17T23:16:53.666Z,8.00
2018-09-17T23:19:22.964Z,8.03
2018-09-17T23:21:51.942Z,7.87
2018-09-17T23:24:20.922Z,7.77
2018-09-17T23:26:49.889Z,8.13
2018-09-17T23:29:18.849Z,8.90
2018-09-17T23:31:47.915Z,7.93
2018-09-17T23:34:16.920Z,7.00
2018-09-17T23:36:45.909Z,8.27
2018-09-17T23:39:14.891Z,8.00
2018-09-17T23:41:43.899Z,7.90
2018-09-17T23:44:12.904Z,7.43
2018-09-17T23:46:41.990Z,8.13
2018-09-17T23:49:10.986Z,7.87
2018-09-17T23:51:39.965Z,9.20
2018-09-17T23:54:09.056Z,7.40
2018-09-17T23:56:38.152Z,8.77
2018-09-17T23:59:07.116Z,9.50
